createdAt,value
2022-09-03T00:00:26.539Z,74.26
2022-09-03T00:01:28.831Z,74.16
2022-09-03T00:02:27.154Z,74.37
2022-09-03T00:03:27.418Z,74.37
2022-09-03T00:04:29.589Z,74.37
2022-09-03T00:05:27.963Z,74.26
2022-09-03T00:06:28.252Z,74.16
2022-09-03T00:07:28.563Z,74.06
2022-09-03T00:08:28.865Z,74.26
2022-09-03T00:09:31.055Z,74.26
2022-09-03T00:10:29.438Z,73.96
2022-09-03T00:11:31.682Z,74.06
2022-09-03T00:12:30.091Z,73.96
2022-09-03T00:13:30.394Z,73.96
2022-09-03T00:14:32.564Z,73.96
2022-09-03T00:15:30.945Z,73.96
2022-09-03T00:16:33.130Z,73.96
2022-09-03T00:17:33.325Z,73.75
2022-09-03T00:18:33.504Z,73.66
2022-09-03T00:19:33.690Z,74.37
2022-09-03T00:20:34.365Z,74.26
2022-09-03T00:21:34.557Z,74.06
2022-09-03T00:22:34.729Z,74.26
2022-09-03T00:23:34.909Z,74.37
2022-09-03T00:24:33.658Z,74.46
2022-09-03T00:25:35.840Z,74.37
2022-09-03T00:26:34.223Z,74.37
2022-09-03T00:27:36.397Z,74.50
2022-09-03T00:28:34.786Z,74.80
2022-09-03T00:29:36.968Z,74.80
2022-09-03T00:30:35.338Z,74.70
2022-09-03T00:31:35.634Z,74.46
2022-09-03T00:32:37.763Z,74.57
2022-09-03T00:33:36.147Z,74.46
2022-09-03T00:34:38.326Z,74.46
2022-09-03T00:35:36.718Z,74.60
2022-09-03T00:36:38.902Z,74.90
2022-09-03T00:37:39.077Z,74.77
2022-09-03T00:38:37.584Z,74.66
2022-09-03T00:39:37.950Z,75.21
2022-09-03T00:40:40.067Z,75.51
2022-09-03T00:41:38.560Z,75.51
2022-09-03T00:42:38.868Z,75.71
2022-09-03T00:43:41.071Z,75.71
2022-09-03T00:44:39.451Z,75.51
2022-09-03T00:45:41.627Z,75.61
2022-09-03T00:46:40.031Z,75.61
2022-09-03T00:47:40.318Z,75.61
2022-09-03T00:48:42.504Z,75.61
2022-09-03T00:49:40.880Z,75.92
2022-09-03T00:50:43.059Z,75.92
2022-09-03T00:51:43.261Z,75.71
2022-09-03T00:52:43.439Z,75.61
2022-09-03T00:53:42.070Z,75.31
2022-09-03T00:54:42.372Z,75.61
2022-09-03T00:55:42.723Z,75.61
2022-09-03T00:56:44.882Z,75.71
2022-09-03T00:57:47.337Z,75.61
2022-09-03T00:58:43.488Z,75.71
2022-09-03T00:59:45.651Z,76.02
2022-09-03T01:00:44.032Z,76.15
2022-09-03T01:01:44.430Z,76.02
2022-09-03T01:02:46.585Z,76.15
2022-09-03T01:03:44.935Z,76.22
2022-09-03T01:04:47.090Z,75.71
2022-09-03T01:05:47.262Z,75.81
2022-09-03T01:06:47.412Z,75.81
2022-09-03T01:07:47.603Z,76.12
2022-09-03T01:08:49.379Z,76.02
2022-09-03T01:09:48.541Z,76.35
2022-09-03T01:10:47.777Z,76.35
2022-09-03T01:11:49.134Z,76.35
2022-09-03T01:12:49.316Z,76.46
2022-09-03T01:13:47.694Z,76.56
2022-09-03T01:14:49.887Z,76.66
2022-09-03T01:15:48.286Z,76.76
2022-09-03T01:16:48.572Z,76.86
2022-09-03T01:17:50.758Z,76.66
2022-09-03T01:18:49.139Z,76.56
2022-09-03T01:19:51.317Z,76.66
2022-09-03T01:20:49.708Z,76.86
2022-09-03T01:21:51.875Z,77.20
2022-09-03T01:22:50.245Z,77.30
2022-09-03T01:23:52.415Z,77.17
2022-09-03T01:24:50.800Z,77.06
2022-09-03T01:25:53.027Z,77.50
2022-09-03T01:26:51.408Z,77.61
2022-09-03T01:27:55.041Z,77.50
2022-09-03T01:28:51.951Z,77.50
2022-09-03T01:29:52.260Z,77.37
2022-09-03T01:30:55.435Z,76.97
2022-09-03T01:31:53.697Z,77.06
2022-09-03T01:34:10.350Z,77.26
2022-09-03T01:35:10.059Z,77.37
2022-09-03T01:36:11.289Z,77.47
2022-09-03T01:37:11.518Z,77.57
2022-09-03T01:38:11.050Z,77.47
2022-09-03T01:39:10.289Z,77.26
2022-09-03T01:40:10.576Z,77.37
2022-09-03T01:41:11.779Z,77.47
2022-09-03T01:42:12.200Z,77.57
2022-09-03T01:43:12.355Z,77.71
2022-09-03T01:44:13.625Z,78.11
2022-09-03T01:45:13.802Z,78.01
2022-09-03T01:46:14.053Z,78.21
2022-09-03T01:47:14.167Z,78.21
2022-09-03T01:48:12.938Z,78.01
2022-09-03T01:49:13.241Z,78.21
2022-09-03T01:50:15.419Z,78.52
2022-09-03T01:51:15.598Z,78.31
2022-09-03T01:52:14.108Z,78.62
2022-09-03T01:53:14.411Z,78.62
2022-09-03T01:54:20.832Z,78.52
2022-09-03T01:55:17.898Z,78.52
2022-09-03T01:56:16.097Z,78.52
2022-09-03T01:57:29.169Z,78.62
2022-09-03T01:58:16.900Z,78.72
2022-09-03T01:59:16.138Z,78.72
2022-09-03T02:00:16.443Z,78.72
2022-09-03T02:01:18.659Z,79.06
2022-09-03T02:02:18.833Z,78.96
2022-09-03T02:03:19.001Z,79.02
2022-09-03T02:04:19.169Z,78.72
2022-09-03T02:05:19.854Z,79.13
2022-09-03T02:06:20.084Z,78.92
2022-09-03T02:07:20.252Z,78.82
2022-09-03T02:08:20.466Z,78.72
2022-09-03T02:09:21.146Z,78.82
2022-09-03T02:10:21.325Z,78.92
2022-09-03T02:11:19.841Z,78.92
2022-09-03T02:12:22.002Z,78.72
2022-09-03T02:13:22.204Z,78.72
2022-09-03T02:14:22.388Z,78.72
2022-09-03T02:15:22.638Z,78.62
2022-09-03T02:16:23.245Z,78.82
2022-09-03T02:17:23.426Z,79.02
2022-09-03T02:18:23.798Z,79.02
2022-09-03T02:19:22.209Z,78.92
2022-09-03T02:20:24.397Z,78.62
2022-09-03T02:21:24.580Z,78.38
2022-09-03T02:22:24.754Z,78.42
2022-09-03T02:23:27.752Z,78.48
2022-09-03T02:24:23.678Z,78.28
2022-09-03T02:25:25.853Z,78.28
2022-09-03T02:26:26.040Z,78.28
2022-09-03T02:27:24.544Z,78.17
2022-09-03T02:28:24.945Z,78.38
2022-09-03T02:29:25.124Z,78.38
2022-09-03T02:30:25.436Z,78.31
2022-09-03T02:31:27.656Z,78.42
2022-09-03T02:32:27.798Z,78.17
2022-09-03T02:33:29.439Z,78.08
2022-09-03T02:34:26.592Z,78.08
2022-09-03T02:35:26.899Z,78.08
2022-09-03T02:36:29.078Z,77.97
2022-09-03T02:37:29.230Z,78.08
2022-09-03T02:38:29.409Z,78.42
2022-09-03T02:39:28.060Z,78.42
2022-09-03T02:40:28.352Z,78.17
2022-09-03T02:41:28.650Z,78.17
2022-09-03T02:42:30.822Z,78.08
2022-09-03T02:43:29.196Z,78.28
2022-09-03T02:44:29.507Z,78.11
2022-09-03T02:45:29.805Z,78.31
2022-09-03T02:46:32.063Z,78.42
2022-09-03T02:47:30.414Z,78.52
2022-09-03T02:48:32.590Z,78.38
2022-09-03T02:49:31.874Z,78.17
2022-09-03T02:50:32.032Z,78.42
2022-09-03T02:51:33.395Z,77.97
2022-09-03T02:52:32.609Z,78.21
2022-09-03T02:53:33.960Z,78.42
2022-09-03T02:54:34.150Z,78.52
2022-09-03T02:55:32.654Z,78.31
2022-09-03T02:56:34.834Z,78.17
2022-09-03T02:57:33.214Z,78.31
2022-09-03T02:58:33.521Z,78.31
2022-09-03T02:59:35.698Z,78.31
2022-09-03T03:00:34.104Z,78.31
2022-09-03T03:01:34.411Z,78.28
2022-09-03T03:02:34.778Z,78.08
2022-09-03T03:03:34.947Z,78.08
2022-09-03T03:04:37.145Z,78.42
2022-09-03T03:05:37.318Z,78.31
2022-09-03T03:06:37.503Z,78.52
2022-09-03T03:07:36.128Z,78.08
2022-09-03T03:08:36.433Z,77.97
2022-09-03T03:09:36.748Z,78.17
2022-09-03T03:10:38.921Z,78.08
2022-09-03T03:11:37.301Z,78.28
2022-09-03T03:12:37.621Z,77.97
2022-09-03T03:13:37.922Z,77.97
2022-09-03T03:14:40.103Z,77.87
2022-09-03T03:15:40.296Z,78.17
2022-09-03T03:16:41.949Z,78.17
2022-09-03T03:17:40.645Z,78.08
2022-09-03T03:18:39.397Z,78.08
2022-09-03T03:19:43.028Z,78.42
2022-09-03T03:20:43.228Z,78.08
2022-09-03T03:21:43.415Z,78.08
2022-09-03T03:22:42.108Z,77.97
2022-09-03T03:23:44.738Z,77.67
2022-09-03T03:24:42.081Z,77.67
2022-09-03T03:25:43.346Z,77.67
2022-09-03T03:26:43.521Z,77.97
2022-09-03T03:27:43.670Z,78.08
2022-09-03T03:28:43.850Z,77.97
2022-09-03T03:29:43.392Z,77.97
2022-09-03T03:30:43.822Z,77.77
2022-09-03T03:31:44.953Z,77.67
2022-09-03T03:32:43.451Z,77.97
2022-09-03T03:33:45.626Z,77.97
2022-09-03T03:34:43.986Z,77.77
2022-09-03T03:35:45.119Z,77.77
2022-09-03T03:36:45.539Z,77.77
2022-09-03T03:37:44.893Z,77.47
2022-09-03T03:38:47.065Z,77.67
2022-09-03T03:39:46.281Z,77.67
2022-09-03T03:40:45.784Z,77.77
2022-09-03T03:41:47.922Z,77.67
2022-09-03T03:42:48.096Z,77.47
2022-09-03T03:43:48.280Z,77.57
2022-09-03T03:44:46.901Z,77.57
2022-09-03T03:45:49.119Z,77.57
2022-09-03T03:46:49.236Z,77.77
2022-09-03T03:47:47.732Z,77.57
2022-09-03T03:48:48.914Z,77.57
2022-09-03T03:49:48.269Z,77.67
2022-09-03T03:50:48.593Z,77.57
2022-09-03T03:51:48.900Z,77.37
2022-09-03T03:52:51.078Z,77.26
2022-09-03T03:53:51.250Z,77.47
2022-09-03T03:54:51.422Z,77.37
2022-09-03T03:55:51.584Z,77.57
2022-09-03T03:56:55.340Z,77.17
2022-09-03T03:57:53.495Z,77.26
2022-09-03T03:58:52.670Z,77.37
2022-09-03T03:59:51.168Z,77.26
2022-09-03T04:00:51.566Z,77.26
2022-09-03T04:01:51.759Z,77.37
2022-09-03T04:02:53.002Z,77.26
2022-09-03T04:03:52.333Z,77.17
2022-09-03T04:04:52.612Z,77.06
2022-09-03T04:05:52.911Z,76.97
2022-09-03T04:06:53.220Z,76.72
2022-09-03T04:07:55.399Z,76.86
2022-09-03T04:08:55.573Z,76.97
2022-09-03T04:09:55.748Z,77.06
2022-09-03T04:10:55.935Z,76.76
2022-09-03T04:11:56.613Z,77.06
2022-09-03T04:12:56.840Z,76.72
2022-09-03T04:13:57.019Z,76.86
2022-09-03T04:14:57.219Z,76.76
2022-09-03T04:15:55.865Z,76.72
2022-09-03T04:16:58.089Z,76.76
2022-09-03T04:17:56.467Z,76.97
2022-09-03T04:19:00.589Z,76.97
2022-09-03T04:19:58.812Z,76.86
2022-09-03T04:20:59.033Z,77.06
2022-09-03T04:21:57.677Z,76.97
2022-09-03T04:22:57.992Z,76.86
2022-09-03T04:23:58.308Z,76.76
2022-09-03T04:24:58.625Z,77.06
2022-09-03T04:26:00.801Z,77.17
2022-09-03T04:27:00.986Z,77.17
2022-09-03T04:27:59.505Z,77.06
2022-09-03T04:28:59.834Z,77.06
2022-09-03T04:30:00.158Z,77.06
2022-09-03T04:31:02.429Z,77.26
2022-09-03T04:32:02.513Z,77.06
2022-09-03T04:33:01.009Z,76.97
2022-09-03T04:34:01.335Z,77.17
2022-09-03T04:35:01.678Z,77.17
2022-09-03T04:36:02.005Z,76.76
2022-09-03T04:37:04.193Z,76.76
2022-09-03T04:38:04.370Z,76.66
2022-09-03T04:39:02.901Z,76.46
2022-09-03T04:40:03.293Z,76.52
2022-09-03T04:41:05.418Z,76.32
2022-09-03T04:42:03.704Z,76.32
2022-09-03T04:43:04.028Z,75.92
2022-09-03T04:44:04.354Z,76.12
2022-09-03T04:45:06.546Z,76.35
2022-09-03T04:46:06.783Z,76.56
2022-09-03T04:47:05.211Z,76.46
2022-09-03T04:48:07.415Z,76.12
2022-09-03T04:49:05.822Z,75.92
2022-09-03T04:50:06.147Z,75.81
2022-09-03T04:51:06.516Z,75.92
2022-09-03T04:52:06.726Z,75.81
2022-09-03T04:53:08.130Z,75.81
2022-09-03T04:54:09.248Z,75.92
2022-09-03T04:55:07.646Z,75.51
2022-09-03T04:56:11.793Z,75.85
2022-09-03T04:57:08.231Z,75.51
2022-09-03T04:58:08.604Z,75.41
2022-09-03T04:59:08.819Z,75.01
2022-09-03T05:00:09.164Z,75.01
2022-09-03T05:01:11.389Z,74.70
2022-09-03T05:02:11.584Z,74.60
2022-09-03T05:03:10.085Z,74.80
2022-09-03T05:04:10.440Z,74.70
2022-09-03T05:05:10.658Z,74.50
2022-09-03T05:06:10.893Z,74.16
2022-09-03T05:07:13.084Z,73.86
2022-09-03T05:08:11.372Z,73.66
2022-09-03T05:09:11.718Z,73.46
2022-09-03T05:10:12.056Z,73.35
2022-09-03T05:11:12.407Z,73.46
2022-09-03T05:12:16.037Z,73.49
2022-09-03T05:13:13.090Z,73.59
2022-09-03T05:14:16.735Z,73.35
2022-09-03T05:15:14.790Z,73.05
2022-09-03T05:16:16.008Z,72.95
2022-09-03T05:17:16.155Z,72.61
2022-09-03T05:18:15.551Z,72.55
2022-09-03T05:19:16.756Z,72.55
2022-09-03T05:20:15.840Z,72.24
2022-09-03T05:21:15.469Z,72.31
2022-09-03T05:22:15.698Z,72.21
2022-09-03T05:23:16.832Z,71.91
2022-09-03T05:24:16.877Z,72.11
2022-09-03T05:25:17.433Z,72.04
2022-09-03T05:26:19.480Z,71.94
2022-09-03T05:27:17.152Z,71.73
2022-09-03T05:28:17.499Z,71.94
2022-09-03T05:29:18.678Z,71.94
2022-09-03T05:30:18.974Z,71.84
2022-09-03T05:31:19.491Z,71.94
2022-09-03T05:32:19.555Z,72.04
2022-09-03T05:33:19.971Z,71.94
2022-09-03T05:34:21.159Z,71.50
2022-09-03T05:35:25.362Z,71.70
2022-09-03T05:36:22.741Z,71.30
2022-09-03T05:37:20.863Z,71.00
2022-09-03T05:38:21.372Z,71.30
2022-09-03T05:39:22.513Z,71.23
2022-09-03T05:40:20.777Z,71.00
2022-09-03T05:41:22.959Z,70.89
2022-09-03T05:42:23.140Z,70.79
2022-09-03T05:43:21.555Z,70.49
2022-09-03T05:44:21.787Z,70.49
2022-09-03T05:45:22.981Z,70.39
2022-09-03T05:46:24.171Z,70.39
2022-09-03T05:47:23.329Z,70.29
2022-09-03T05:48:24.603Z,69.89
2022-09-03T05:49:24.700Z,69.55
2022-09-03T05:50:25.382Z,69.89
2022-09-03T05:51:23.817Z,69.89
2022-09-03T05:52:25.990Z,69.38
2022-09-03T05:53:26.169Z,69.38
2022-09-03T05:54:26.366Z,69.38
2022-09-03T05:55:27.248Z,69.78
2022-09-03T05:56:27.670Z,69.55
2022-09-03T05:57:26.363Z,69.04
2022-09-03T05:58:25.770Z,69.04
2022-09-03T05:59:27.925Z,68.95
2022-09-03T06:00:28.176Z,69.35
2022-09-03T06:01:28.272Z,68.61
2022-09-03T06:02:28.552Z,68.74
2022-09-03T06:03:27.256Z,69.15
2022-09-03T06:04:27.395Z,69.04
2022-09-03T06:05:30.592Z,68.84
2022-09-03T06:06:28.068Z,68.84
2022-09-03T06:07:28.286Z,69.24
2022-09-03T06:08:30.467Z,68.77
2022-09-03T06:09:28.757Z,68.74
2022-09-03T06:10:34.514Z,68.33
2022-09-03T06:11:30.218Z,68.44
2022-09-03T06:12:29.517Z,68.21
2022-09-03T06:13:31.691Z,68.21
2022-09-03T06:14:29.987Z,67.77
2022-09-03T06:15:30.223Z,67.27
2022-09-03T06:16:34.386Z,66.66
2022-09-03T06:17:30.692Z,66.86
2022-09-03T06:18:32.855Z,66.42
2022-09-03T06:19:33.055Z,66.09
2022-09-03T06:20:35.120Z,64.78
2022-09-03T06:21:34.644Z,66.13
2022-09-03T06:22:31.972Z,66.80
2022-09-03T06:23:34.140Z,64.82
2022-09-03T06:24:34.336Z,62.95
2022-09-03T06:25:32.739Z,61.15
2022-09-03T06:26:32.982Z,60.22
2022-09-03T06:27:33.223Z,60.25
2022-09-03T06:28:35.396Z,59.26
2022-09-03T06:29:33.708Z,57.73
2022-09-03T06:30:33.953Z,58.16
2022-09-03T06:31:36.188Z,58.79
2022-09-03T06:32:34.456Z,58.49
2022-09-03T06:33:34.692Z,58.29
2022-09-03T06:34:36.879Z,57.26
2022-09-03T06:35:42.847Z,58.59
2022-09-03T06:36:38.362Z,58.26
2022-09-03T06:37:35.682Z,56.76
2022-09-03T06:38:37.874Z,57.81
2022-09-03T06:39:38.112Z,57.96
2022-09-03T06:40:36.495Z,56.63
2022-09-03T06:41:36.739Z,56.13
2022-09-03T06:42:36.975Z,56.30
2022-09-03T06:43:37.214Z,55.50
2022-09-03T06:44:39.403Z,56.26
2022-09-03T06:45:37.756Z,56.71
2022-09-03T06:46:37.945Z,57.41
2022-09-03T06:47:38.182Z,57.23
2022-09-03T06:48:38.442Z,56.02
2022-09-03T06:49:39.608Z,56.56
2022-09-03T06:50:38.956Z,55.95
2022-09-03T06:51:39.193Z,55.60
2022-09-03T06:52:41.388Z,55.75
2022-09-03T06:53:39.693Z,56.26
2022-09-03T06:54:41.868Z,55.85
2022-09-03T06:55:40.219Z,55.90
2022-09-03T06:56:41.142Z,55.32
2022-09-03T06:57:42.617Z,56.35
2022-09-03T06:58:41.029Z,56.52
2022-09-03T06:59:43.234Z,55.40
2022-09-03T07:00:43.237Z,55.02
2022-09-03T07:01:43.649Z,56.05
2022-09-03T07:02:45.061Z,55.93
2022-09-03T07:03:42.410Z,55.32
2022-09-03T07:04:44.589Z,55.40
2022-09-03T07:05:42.907Z,55.10
2022-09-03T07:06:43.373Z,55.52
2022-09-03T07:07:44.309Z,55.82
2022-09-03T07:08:43.727Z,55.82
2022-09-03T07:09:48.326Z,55.65
2022-09-03T07:10:46.112Z,55.85
2022-09-03T07:11:44.521Z,56.26
2022-09-03T07:12:46.697Z,55.93
2022-09-03T07:13:44.997Z,56.13
2022-09-03T07:14:47.180Z,55.10
2022-09-03T07:15:46.644Z,55.00
2022-09-03T07:16:45.811Z,54.50
2022-09-03T07:17:46.040Z,54.70
2022-09-03T07:18:46.280Z,54.67
2022-09-03T07:19:48.468Z,54.00
2022-09-03T07:20:46.796Z,53.14
2022-09-03T07:21:50.131Z,53.44
2022-09-03T07:22:47.355Z,53.24
2022-09-03T07:23:49.543Z,53.62
2022-09-03T07:24:49.716Z,52.59
2022-09-03T07:25:48.166Z,51.69
2022-09-03T07:26:48.404Z,51.39
2022-09-03T07:27:52.548Z,51.37
2022-09-03T07:28:51.866Z,51.15
2022-09-03T07:29:52.547Z,50.92
2022-09-03T07:30:52.624Z,51.04
2022-09-03T07:31:49.836Z,50.54
2022-09-03T07:32:50.055Z,51.57
2022-09-03T07:33:52.210Z,51.09
2022-09-03T07:34:52.392Z,51.20
2022-09-03T07:35:50.826Z,52.82
2022-09-03T07:36:51.425Z,52.34
2022-09-03T07:37:53.233Z,52.59
2022-09-03T07:38:53.396Z,51.84
2022-09-03T07:39:53.627Z,51.17
2022-09-03T07:40:52.208Z,53.42
2022-09-03T07:41:52.430Z,52.47
2022-09-03T07:42:55.177Z,51.32
2022-09-03T07:43:52.958Z,50.60
2022-09-03T07:44:55.129Z,49.90
2022-09-03T07:45:53.445Z,51.27
2022-09-03T07:46:53.705Z,51.17
2022-09-03T07:47:53.908Z,51.27
2022-09-03T07:48:56.095Z,51.50
2022-09-03T07:49:54.392Z,52.00
2022-09-03T07:50:55.455Z,52.34
2022-09-03T07:51:55.874Z,51.84
2022-09-03T07:52:56.093Z,51.67
2022-09-03T07:53:57.537Z,51.64
2022-09-03T07:54:57.540Z,50.70
2022-09-03T07:55:57.721Z,50.10
2022-09-03T07:56:57.531Z,49.90
2022-09-03T07:57:56.719Z,50.07
2022-09-03T07:58:57.761Z,49.33
2022-09-03T07:59:59.141Z,48.33
2022-09-03T08:00:58.434Z,49.80
2022-09-03T08:01:58.757Z,49.48
2022-09-03T08:02:59.884Z,50.54
2022-09-03T08:03:58.374Z,50.84
2022-09-03T08:05:00.498Z,50.20
2022-09-03T08:05:58.966Z,48.25
2022-09-03T08:06:59.209Z,48.28
2022-09-03T08:07:59.441Z,48.40
2022-09-03T08:09:03.700Z,48.68
2022-09-03T08:10:01.862Z,48.48
2022-09-03T08:11:02.056Z,48.35
2022-09-03T08:12:02.252Z,47.14
2022-09-03T08:13:01.800Z,47.68
2022-09-03T08:14:01.951Z,48.13
2022-09-03T08:15:01.402Z,48.11
2022-09-03T08:16:01.674Z,47.09
2022-09-03T08:17:01.932Z,46.99
2022-09-03T08:18:03.537Z,46.89
2022-09-03T08:19:02.411Z,46.27
2022-09-03T08:20:03.598Z,46.12
2022-09-03T08:21:02.903Z,47.02
2022-09-03T08:22:03.141Z,46.01
2022-09-03T08:23:03.382Z,46.86
2022-09-03T08:24:03.627Z,47.56
2022-09-03T08:25:07.769Z,46.54
2022-09-03T08:26:05.191Z,46.56
2022-09-03T08:27:04.494Z,47.24
2022-09-03T08:28:06.641Z,45.28
2022-09-03T08:29:06.833Z,45.50
2022-09-03T08:30:07.072Z,45.70
2022-09-03T08:31:07.315Z,46.04
2022-09-03T08:32:07.380Z,46.34
2022-09-03T08:33:08.071Z,46.08
2022-09-03T08:34:08.245Z,46.16
2022-09-03T08:35:08.406Z,45.32
2022-09-03T08:36:08.604Z,45.15
2022-09-03T08:37:09.271Z,43.92
2022-09-03T08:38:10.920Z,43.62
2022-09-03T08:39:07.813Z,43.82
2022-09-03T08:40:11.976Z,43.30
2022-09-03T08:41:10.216Z,44.26
2022-09-03T08:42:08.647Z,44.68
2022-09-03T08:43:10.806Z,45.32
2022-09-03T08:44:09.108Z,45.32
2022-09-03T08:45:13.297Z,44.48
2022-09-03T08:46:11.602Z,44.42
2022-09-03T08:47:09.879Z,43.90
2022-09-03T08:48:12.055Z,44.82
2022-09-03T08:49:10.363Z,43.38
2022-09-03T08:50:12.617Z,43.90
2022-09-03T08:51:12.729Z,43.60
2022-09-03T08:52:12.886Z,44.45
2022-09-03T08:53:11.437Z,44.32
2022-09-03T08:54:11.676Z,44.45
2022-09-03T08:55:12.865Z,44.31
2022-09-03T08:56:14.128Z,44.24
2022-09-03T08:57:12.439Z,44.35
2022-09-03T08:58:12.683Z,44.87
2022-09-03T08:59:12.916Z,44.84
2022-09-03T09:00:14.183Z,44.12
2022-09-03T09:01:15.343Z,43.80
2022-09-03T09:02:13.831Z,44.02
2022-09-03T09:03:14.054Z,44.94
2022-09-03T09:04:14.287Z,43.60
2022-09-03T09:05:16.481Z,42.83
2022-09-03T09:06:16.662Z,42.79
2022-09-03T09:07:15.094Z,41.28
2022-09-03T09:08:17.283Z,40.70
2022-09-03T09:09:15.594Z,41.09
2022-09-03T09:10:17.826Z,41.08
2022-09-03T09:11:16.090Z,40.80
2022-09-03T09:12:18.271Z,40.72
2022-09-03T09:13:18.453Z,40.50
2022-09-03T09:14:16.889Z,40.30
2022-09-03T09:15:17.124Z,39.40
2022-09-03T09:16:19.341Z,39.01
2022-09-03T09:17:17.619Z,40.14
2022-09-03T09:18:17.861Z,40.32
2022-09-03T09:19:18.100Z,39.97
2022-09-03T09:20:20.288Z,39.70
2022-09-03T09:21:22.643Z,39.62
2022-09-03T09:22:18.831Z,39.42
2022-09-03T09:23:19.064Z,39.42
2022-09-03T09:24:19.315Z,39.25
2022-09-03T09:25:19.553Z,39.62
2022-09-03T09:26:21.737Z,39.40
2022-09-03T09:27:20.047Z,38.79
2022-09-03T09:28:20.291Z,38.69
2022-09-03T09:29:22.260Z,39.21
2022-09-03T09:30:20.822Z,39.18
2022-09-03T09:31:23.079Z,39.05
2022-09-03T09:32:21.624Z,39.15
2022-09-03T09:33:21.745Z,39.59
2022-09-03T09:34:21.984Z,40.32
2022-09-03T09:35:24.165Z,40.54
2022-09-03T09:36:24.356Z,39.40
2022-09-03T09:37:22.784Z,39.11
2022-09-03T09:38:23.083Z,39.54
2022-09-03T09:39:23.303Z,39.62
2022-09-03T09:40:25.465Z,39.31
2022-09-03T09:41:29.779Z,39.40
2022-09-03T09:42:24.215Z,39.74
2022-09-03T09:43:24.450Z,39.32
2022-09-03T09:44:24.685Z,39.12
2022-09-03T09:45:26.867Z,38.89
2022-09-03T09:46:25.241Z,39.29
2022-09-03T09:47:25.434Z,38.85
2022-09-03T09:48:25.810Z,38.75
2022-09-03T09:49:29.328Z,37.99
2022-09-03T09:50:28.089Z,38.67
2022-09-03T09:51:28.226Z,38.06
2022-09-03T09:52:26.908Z,37.70
2022-09-03T09:53:27.151Z,38.65
2022-09-03T09:54:27.398Z,40.28
2022-09-03T09:55:29.757Z,39.83
2022-09-03T09:56:28.769Z,39.62
2022-09-03T09:57:28.237Z,40.24
2022-09-03T09:58:28.482Z,40.24
2022-09-03T09:59:28.719Z,39.80
2022-09-03T10:00:28.960Z,39.57
2022-09-03T10:01:31.165Z,39.39
2022-09-03T10:02:31.391Z,38.43
2022-09-03T10:03:29.809Z,39.40
2022-09-03T10:04:33.200Z,38.79
2022-09-03T10:05:30.260Z,38.49
2022-09-03T10:06:33.903Z,38.61
2022-09-03T10:07:34.090Z,39.74
2022-09-03T10:08:31.035Z,39.90
2022-09-03T10:09:35.166Z,39.70
2022-09-03T10:10:32.556Z,38.97
2022-09-03T10:11:35.159Z,38.97
2022-09-03T10:12:34.419Z,39.39
2022-09-03T10:13:33.286Z,39.47
2022-09-03T10:14:34.533Z,40.10
2022-09-03T10:15:32.890Z,40.52
2022-09-03T10:16:34.023Z,41.44
2022-09-03T10:17:37.392Z,40.98
2022-09-03T10:18:34.593Z,40.46
2022-09-03T10:19:35.019Z,38.95
2022-09-03T10:20:34.308Z,39.05
2022-09-03T10:21:36.464Z,41.02
2022-09-03T10:22:36.651Z,42.03
2022-09-03T10:23:36.823Z,41.93
2022-09-03T10:24:35.259Z,42.21
2022-09-03T10:25:36.492Z,41.17
2022-09-03T10:26:37.713Z,41.55
2022-09-03T10:27:37.876Z,40.84
2022-09-03T10:28:36.246Z,41.96
2022-09-03T10:29:36.478Z,42.15
2022-09-03T10:30:37.540Z,42.57
2022-09-03T10:31:38.904Z,42.25
2022-09-03T10:32:41.849Z,41.44
2022-09-03T10:33:37.453Z,40.50
2022-09-03T10:34:39.642Z,40.90
2022-09-03T10:35:38.849Z,40.60
2022-09-03T10:36:40.920Z,41.83
2022-09-03T10:37:38.615Z,42.77
2022-09-03T10:38:39.803Z,43.49
2022-09-03T10:39:43.276Z,42.21
2022-09-03T10:40:43.126Z,42.54
2022-09-03T10:41:41.360Z,42.93
2022-09-03T10:42:42.043Z,41.39
2022-09-03T10:43:42.240Z,41.06
2022-09-03T10:44:42.424Z,40.40
2022-09-03T10:45:43.012Z,40.40
2022-09-03T10:46:41.252Z,40.70
2022-09-03T10:47:43.395Z,40.14
2022-09-03T10:48:43.641Z,39.90
2022-09-03T10:49:44.537Z,40.28
2022-09-03T10:50:46.179Z,39.67
2022-09-03T10:51:46.205Z,40.16
2022-09-03T10:52:45.705Z,41.39
2022-09-03T10:53:43.025Z,41.52
2022-09-03T10:54:43.278Z,41.71
2022-09-03T10:55:46.451Z,39.78
2022-09-03T10:56:43.771Z,41.85
2022-09-03T10:57:44.008Z,40.78
2022-09-03T10:58:46.189Z,39.47
2022-09-03T10:59:44.495Z,39.25
2022-09-03T11:00:46.669Z,39.69
2022-09-03T11:01:45.150Z,39.90
2022-09-03T11:02:45.480Z,39.98
2022-09-03T11:03:47.588Z,39.73
2022-09-03T11:04:47.783Z,39.48
2022-09-03T11:05:48.302Z,40.38
2022-09-03T11:06:46.611Z,39.54
2022-09-03T11:07:48.793Z,39.35
2022-09-03T11:08:48.974Z,39.95
2022-09-03T11:09:47.410Z,39.21
2022-09-03T11:10:51.065Z,37.70
2022-09-03T11:11:47.896Z,38.22
2022-09-03T11:12:50.056Z,38.34
2022-09-03T11:13:48.393Z,39.35
2022-09-03T11:14:50.596Z,39.73
2022-09-03T11:15:50.829Z,39.09
2022-09-03T11:16:49.223Z,37.75
2022-09-03T11:17:51.417Z,38.40
2022-09-03T11:18:49.725Z,36.51
2022-09-03T11:19:49.963Z,38.48
2022-09-03T11:20:53.179Z,39.65
2022-09-03T11:21:52.376Z,41.00
2022-09-03T11:22:50.816Z,40.78
2022-09-03T11:23:55.226Z,40.54
2022-09-03T11:24:53.230Z,39.90
2022-09-03T11:25:52.501Z,37.82
2022-09-03T11:26:51.810Z,38.43
2022-09-03T11:27:56.342Z,39.13
2022-09-03T11:28:52.511Z,37.69
2022-09-03T11:29:54.192Z,37.81
2022-09-03T11:30:53.842Z,37.62
2022-09-03T11:31:54.644Z,38.54
2022-09-03T11:32:55.375Z,39.54
2022-09-03T11:33:53.717Z,39.31
2022-09-03T11:34:53.960Z,38.20
2022-09-03T11:35:58.115Z,37.96
2022-09-03T11:36:56.311Z,37.13
2022-09-03T11:37:54.741Z,37.04
2022-09-03T11:38:54.983Z,39.03
2022-09-03T11:39:56.536Z,39.35
2022-09-03T11:40:59.385Z,39.54
2022-09-03T11:41:57.608Z,40.36
2022-09-03T11:42:57.793Z,40.60
2022-09-03T11:43:57.578Z,41.30
2022-09-03T11:44:56.601Z,42.03
2022-09-03T11:45:58.823Z,42.11
2022-09-03T11:46:58.970Z,41.50
2022-09-03T11:47:59.136Z,41.04
2022-09-03T11:48:57.701Z,40.62
2022-09-03T11:49:57.945Z,39.73
2022-09-03T11:50:59.045Z,40.36
2022-09-03T11:52:00.385Z,40.96
2022-09-03T11:53:00.579Z,41.08
2022-09-03T11:54:00.729Z,41.00
2022-09-03T11:54:59.301Z,41.17
2022-09-03T11:55:59.533Z,41.55
2022-09-03T11:57:01.729Z,41.47
2022-09-03T11:58:00.167Z,41.60
2022-09-03T11:59:02.341Z,42.01
2022-09-03T12:00:00.643Z,42.13
2022-09-03T12:01:03.973Z,42.47
2022-09-03T12:02:03.110Z,42.57
2022-09-03T12:03:01.680Z,42.97
2022-09-03T12:04:01.893Z,42.77
2022-09-03T12:05:02.213Z,42.87
2022-09-03T12:06:04.320Z,42.77
2022-09-03T12:07:04.504Z,42.13
2022-09-03T12:08:08.214Z,41.39
2022-09-03T12:09:04.311Z,41.53
2022-09-03T12:10:03.605Z,42.05
2022-09-03T12:11:07.815Z,42.37
2022-09-03T12:12:06.035Z,42.47
2022-09-03T12:13:04.463Z,43.09
2022-09-03T12:14:04.697Z,43.27
2022-09-03T12:15:04.946Z,42.53
2022-09-03T12:16:07.146Z,40.78
2022-09-03T12:17:07.286Z,40.96
2022-09-03T12:18:06.699Z,40.76
2022-09-03T12:19:05.993Z,40.05
2022-09-03T12:20:08.141Z,39.23
2022-09-03T12:21:08.325Z,39.75
2022-09-03T12:22:08.509Z,40.08
2022-09-03T12:23:07.211Z,40.36
2022-09-03T12:24:09.377Z,41.28
2022-09-03T12:25:07.687Z,41.61
2022-09-03T12:26:07.979Z,42.71
2022-09-03T12:27:10.163Z,41.16
2022-09-03T12:28:10.335Z,40.12
2022-09-03T12:29:09.362Z,39.41
2022-09-03T12:30:09.888Z,39.71
2022-09-03T12:31:10.362Z,39.15
2022-09-03T12:32:11.567Z,37.99
2022-09-03T12:33:10.883Z,37.32
2022-09-03T12:34:11.041Z,38.15
2022-09-03T12:35:11.599Z,37.65
2022-09-03T12:36:11.619Z,38.48
2022-09-03T12:37:12.973Z,39.63
2022-09-03T12:38:17.709Z,40.58
2022-09-03T12:39:13.298Z,41.50
2022-09-03T12:40:11.955Z,41.83
2022-09-03T12:41:23.472Z,42.73
2022-09-03T12:42:15.396Z,42.31
2022-09-03T12:44:14.954Z,42.73
2022-09-03T12:45:15.161Z,42.93
2022-09-03T12:46:15.569Z,42.51
2022-09-03T12:48:15.174Z,42.69
2022-09-03T12:49:31.730Z,41.25
2022-09-03T12:50:17.049Z,40.44
2022-09-03T12:52:17.185Z,42.51
2022-09-03T12:53:17.417Z,41.47
2022-09-03T12:54:17.554Z,40.62
2022-09-03T12:55:16.252Z,40.17
2022-09-03T12:56:20.391Z,38.56
2022-09-03T12:57:16.727Z,38.98
2022-09-03T12:58:16.964Z,39.79
2022-09-03T12:59:17.211Z,38.34
2022-09-03T13:00:19.377Z,38.68